sensor_id;sensor_type;location;lat;lon;timestamp;pressure;altitude;pressure_sealevel;temperature;humidity
74561;BME280;62979;55.720;37.606;2023-11-21T00:00:13;99237.09;;;-3.91;49.86
74561;BME280;62979;55.720;37.606;2023-11-21T00:02:41;99233.72;;;-3.90;49.97
74561;BME280;62979;55.720;37.606;2023-11-21T00:05:11;99238.91;;;-3.87;49.70
74561;BME280;62979;55.720;37.606;2023-11-21T00:07:39;99241.41;;;-3.88;49.64
74561;BME280;62979;55.720;37.606;2023-11-21T00:10:07;99238.66;;;-3.96;50.09
74561;BME280;62979;55.720;37.606;2023-11-21T00:12:36;99252.47;;;-3.89;49.70
74561;BME280;62979;55.720;37.606;2023-11-21T00:15:06;99245.59;;;-3.92;49.72
74561;BME280;62979;55.720;37.606;2023-11-21T00:17:36;99243.94;;;-3.90;49.75
74561;BME280;62979;55.720;37.606;2023-11-21T00:20:04;99239.75;;;-3.86;49.50
74561;BME280;62979;55.720;37.606;2023-11-21T00:22:34;99242.31;;;-3.88;49.47
74561;BME280;62979;55.720;37.606;2023-11-21T00:25:02;99249.06;;;-3.88;49.63
74561;BME280;62979;55.720;37.606;2023-11-21T00:27:30;99242.31;;;-3.86;49.66
74561;BME280;62979;55.720;37.606;2023-11-21T00:29:57;99247.47;;;-3.84;49.58
74561;BME280;62979;55.720;37.606;2023-11-21T00:32:24;99241.53;;;-3.83;49.50
74561;BME280;62979;55.720;37.606;2023-11-21T00:34:51;99235.38;;;-3.92;49.71
74561;BME280;62979;55.720;37.606;2023-11-21T00:37:20;99247.41;;;-3.88;49.67
74561;BME280;62979;55.720;37.606;2023-11-21T00:39:48;99246.63;;;-3.83;49.74
74561;BME280;62979;55.720;37.606;2023-11-21T00:42:15;99237.31;;;-3.81;49.53
74561;BME280;62979;55.720;37.606;2023-11-21T00:44:42;99238.97;;;-3.85;49.46
74561;BME280;62979;55.720;37.606;2023-11-21T00:47:10;99223.56;;;-3.87;49.64
74561;BME280;62979;55.720;37.606;2023-11-21T00:49:37;99239.94;;;-3.80;49.58
74561;BME280;62979;55.720;37.606;2023-11-21T00:52:05;99233.63;;;-3.93;49.72
74561;BME280;62979;55.720;37.606;2023-11-21T00:54:33;99231.13;;;-3.91;49.64
74561;BME280;62979;55.720;37.606;2023-11-21T00:57:01;99237.25;;;-3.84;49.77
74561;BME280;62979;55.720;37.606;2023-11-21T00:59:29;99234.69;;;-3.84;49.64
74561;BME280;62979;55.720;37.606;2023-11-21T01:01:56;99240.72;;;-3.82;49.75
74561;BME280;62979;55.720;37.606;2023-11-21T01:04:25;99239.88;;;-3.81;49.66
74561;BME280;62979;55.720;37.606;2023-11-21T01:06:53;99237.25;;;-3.84;49.30
74561;BME280;62979;55.720;37.606;2023-11-21T01:09:20;99236.91;;;-3.98;49.60
74561;BME280;62979;55.720;37.606;2023-11-21T01:11:47;99246.44;;;-3.91;49.63
74561;BME280;62979;55.720;37.606;2023-11-21T01:14:15;99237.09;;;-3.91;49.51
74561;BME280;62979;55.720;37.606;2023-11-21T01:16:43;99236.09;;;-3.97;49.48
74561;BME280;62979;55.720;37.606;2023-11-21T01:19:10;99242.97;;;-3.93;49.98
74561;BME280;62979;55.720;37.606;2023-11-21T01:21:37;99246.50;;;-3.90;49.53
74561;BME280;62979;55.720;37.606;2023-11-21T01:24:05;99239.63;;;-3.92;49.58
74561;BME280;62979;55.720;37.606;2023-11-21T01:26:33;99231.25;;;-3.87;49.49
74561;BME280;62979;55.720;37.606;2023-11-21T01:29:00;99232.69;;;-3.96;49.48
74561;BME280;62979;55.720;37.606;2023-11-21T01:31:28;99227.38;;;-4.04;49.42
74561;BME280;62979;55.720;37.606;2023-11-21T01:33:56;99231.91;;;-3.94;49.64
74561;BME280;62979;55.720;37.606;2023-11-21T01:36:30;99225.75;;;-4.00;49.50
74561;BME280;62979;55.720;37.606;2023-11-21T01:38:58;99242.06;;;-3.95;49.65
74561;BME280;62979;55.720;37.606;2023-11-21T01:41:26;99234.50;;;-3.92;49.69
74561;BME280;62979;55.720;37.606;2023-11-21T01:43:54;99237.25;;;-3.84;49.47
74561;BME280;62979;55.720;37.606;2023-11-21T01:46:21;99227.00;;;-3.86;49.42
74561;BME280;62979;55.720;37.606;2023-11-21T01:48:51;99227.75;;;-3.90;49.50
74561;BME280;62979;55.720;37.606;2023-11-21T01:51:20;99230.22;;;-3.93;49.74
74561;BME280;62979;55.720;37.606;2023-11-21T01:53:47;99234.53;;;-3.91;49.85
74561;BME280;62979;55.720;37.606;2023-11-21T01:56:14;99240.47;;;-3.92;49.39
74561;BME280;62979;55.720;37.606;2023-11-21T01:58:42;99240.31;;;-3.98;49.47
74561;BME280;62979;55.720;37.606;2023-11-21T02:01:12;99247.09;;;-4.00;49.48
74561;BME280;62979;55.720;37.606;2023-11-21T02:03:39;99237.41;;;-4.12;49.28
74561;BME280;62979;55.720;37.606;2023-11-21T02:06:08;99244.41;;;-4.04;49.05
74561;BME280;62979;55.720;37.606;2023-11-21T02:08:35;99241.81;;;-4.06;49.07
74561;BME280;62979;55.720;37.606;2023-11-21T02:11:03;99235.13;;;-4.01;49.25
74561;BME280;62979;55.720;37.606;2023-11-21T02:13:30;99236.88;;;-4.00;48.88
74561;BME280;62979;55.720;37.606;2023-11-21T02:15:58;99233.47;;;-3.99;48.95
74561;BME280;62979;55.720;37.606;2023-11-21T02:18:25;99241.97;;;-4.00;48.90
74561;BME280;62979;55.720;37.606;2023-11-21T02:20:55;99240.22;;;-4.01;48.74
74561;BME280;62979;55.720;37.606;2023-11-21T02:23:24;99227.25;;;-4.09;48.77
74561;BME280;62979;55.720;37.606;2023-11-21T02:25:54;99246.84;;;-4.07;48.66
74561;BME280;62979;55.720;37.606;2023-11-21T02:28:21;99241.88;;;-4.03;48.46
74561;BME280;62979;55.720;37.606;2023-11-21T02:30:51;99240.22;;;-4.01;48.18
74561;BME280;62979;55.720;37.606;2023-11-21T02:33:21;99241.22;;;-3.96;48.09
74561;BME280;62979;55.720;37.606;2023-11-21T02:35:48;99236.88;;;-4.00;47.97
74561;BME280;62979;55.720;37.606;2023-11-21T02:38:18;99235.97;;;-4.00;47.75
74561;BME280;62979;55.720;37.606;2023-11-21T02:40:47;99240.34;;;-3.96;47.64
74561;BME280;62979;55.720;37.606;2023-11-21T02:43:15;99235.72;;;-4.11;47.15
74561;BME280;62979;55.720;37.606;2023-11-21T02:45:42;99253.66;;;-4.08;47.54
74561;BME280;62979;55.720;37.606;2023-11-21T02:48:09;99248.63;;;-4.05;47.47
74561;BME280;62979;55.720;37.606;2023-11-21T02:50:37;99243.50;;;-4.06;47.43
74561;BME280;62979;55.720;37.606;2023-11-21T02:53:04;99254.53;;;-4.07;47.41
74561;BME280;62979;55.720;37.606;2023-11-21T02:55:32;99247.75;;;-4.05;47.21
74561;BME280;62979;55.720;37.606;2023-11-21T02:58:02;99258.06;;;-4.02;47.07
74561;BME280;62979;55.720;37.606;2023-11-21T03:00:31;99266.63;;;-4.00;46.93
74561;BME280;62979;55.720;37.606;2023-11-21T03:02:59;99263.00;;;-4.09;46.76
74561;BME280;62979;55.720;37.606;2023-11-21T03:05:26;99269.97;;;-4.03;46.71
74561;BME280;62979;55.720;37.606;2023-11-21T03:07:54;99265.69;;;-4.04;46.78
74561;BME280;62979;55.720;37.606;2023-11-21T03:10:22;99264.00;;;-4.03;46.62
74561;BME280;62979;55.720;37.606;2023-11-21T03:12:49;99270.03;;;-4.01;46.85
74561;BME280;62979;55.720;37.606;2023-11-21T03:15:17;99269.03;;;-4.06;46.34
74561;BME280;62979;55.720;37.606;2023-11-21T03:17:44;99274.28;;;-4.00;46.68
74561;BME280;62979;55.720;37.606;2023-11-21T03:20:14;99274.94;;;-4.07;46.60
74561;BME280;62979;55.720;37.606;2023-11-21T03:22:41;99273.94;;;-4.14;46.72
74561;BME280;62979;55.720;37.606;2023-11-21T03:25:09;99262.06;;;-4.12;46.99
74561;BME280;62979;55.720;37.606;2023-11-21T03:27:37;99265.63;;;-4.07;46.98
74561;BME280;62979;55.720;37.606;2023-11-21T03:30:07;99269.16;;;-4.02;46.96
74561;BME280;62979;55.720;37.606;2023-11-21T03:32:37;99266.50;;;-4.05;46.91
74561;BME280;62979;55.720;37.606;2023-11-21T03:35:05;99256.13;;;-4.11;46.94
74561;BME280;62979;55.720;37.606;2023-11-21T03:37:33;99275.06;;;-4.03;47.17
74561;BME280;62979;55.720;37.606;2023-11-21T03:40:00;99261.81;;;-4.21;47.02
74561;BME280;62979;55.720;37.606;2023-11-21T03:42:29;99279.13;;;-4.11;47.20
74561;BME280;62979;55.720;37.606;2023-11-21T03:44:56;99289.38;;;-4.10;47.69
74561;BME280;62979;55.720;37.606;2023-11-21T03:47:23;99285.28;;;-4.04;47.77
74561;BME280;62979;55.720;37.606;2023-11-21T03:49:52;99272.97;;;-4.18;47.85
74561;BME280;62979;55.720;37.606;2023-11-21T03:52:19;99280.69;;;-4.16;47.80
74561;BME280;62979;55.720;37.606;2023-11-21T03:54:46;99290.25;;;-4.07;47.88
74561;BME280;62979;55.720;37.606;2023-11-21T03:57:13;99289.34;;;-4.11;48.02
74561;BME280;62979;55.720;37.606;2023-11-21T03:59:41;99280.94;;;-4.07;47.63
74561;BME280;62979;55.720;37.606;2023-11-21T04:02:08;99270.41;;;-4.18;48.28
74561;BME280;62979;55.720;37.606;2023-11-21T04:04:36;99285.94;;;-4.10;48.02
74561;BME280;62979;55.720;37.606;2023-11-21T04:07:05;99284.31;;;-4.08;48.16
74561;BME280;62979;55.720;37.606;2023-11-21T04:09:32;99289.66;;;-3.99;47.88
74561;BME280;62979;55.720;37.606;2023-11-21T04:11:59;99291.22;;;-4.04;48.19
74561;BME280;62979;55.720;37.606;2023-11-21T04:14:26;99284.38;;;-4.05;48.13
74561;BME280;62979;55.720;37.606;2023-11-21T04:16:54;99281.09;;;-4.01;48.17
74561;BME280;62979;55.720;37.606;2023-11-21T04:19:21;99291.38;;;-3.98;48.16
74561;BME280;62979;55.720;37.606;2023-11-21T04:21:48;99285.50;;;-3.95;48.56
74561;BME280;62979;55.720;37.606;2023-11-21T04:24:16;99286.38;;;-3.95;48.22
74561;BME280;62979;55.720;37.606;2023-11-21T04:26:43;99286.28;;;-3.98;48.15
74561;BME280;62979;55.720;37.606;2023-11-21T04:29:11;99288.63;;;-4.05;48.08
74561;BME280;62979;55.720;37.606;2023-11-21T04:31:38;99292.00;;;-4.06;48.44
74561;BME280;62979;55.720;37.606;2023-11-21T04:34:05;99289.41;;;-4.08;48.23
74561;BME280;62979;55.720;37.606;2023-11-21T04:36:33;99294.38;;;-4.14;48.41
74561;BME280;62979;55.720;37.606;2023-11-21T04:39:01;99299.63;;;-4.08;48.74
74561;BME280;62979;55.720;37.606;2023-11-21T04:41:29;99301.78;;;-4.22;48.57
74561;BME280;62979;55.720;37.606;2023-11-21T04:43:58;99300.84;;;-4.25;48.17
74561;BME280;62979;55.720;37.606;2023-11-21T04:46:26;99305.16;;;-4.23;48.97
74561;BME280;62979;55.720;37.606;2023-11-21T04:48:53;99305.31;;;-4.18;48.89
74561;BME280;62979;55.720;37.606;2023-11-21T04:51:20;99315.00;;;-4.06;48.62
74561;BME280;62979;55.720;37.606;2023-11-21T04:53:47;99312.56;;;-4.02;48.60
74561;BME280;62979;55.720;37.606;2023-11-21T04:56:14;99303.78;;;-4.12;48.78
74561;BME280;62979;55.720;37.606;2023-11-21T04:58:43;99313.94;;;-4.13;48.70
74561;BME280;62979;55.720;37.606;2023-11-21T05:01:10;99314.88;;;-4.11;48.75
74561;BME280;62979;55.720;37.606;2023-11-21T05:03:37;99321.63;;;-4.13;48.67
74561;BME280;62979;55.720;37.606;2023-11-21T05:06:06;99327.50;;;-4.16;48.71
74561;BME280;62979;55.720;37.606;2023-11-21T05:08:36;99323.91;;;-4.22;48.87
74561;BME280;62979;55.720;37.606;2023-11-21T05:11:03;99319.91;;;-4.13;48.94
74561;BME280;62979;55.720;37.606;2023-11-21T05:13:34;99326.56;;;-4.19;48.99
74561;BME280;62979;55.720;37.606;2023-11-21T05:16:03;99330.66;;;-4.24;48.88
74561;BME280;62979;55.720;37.606;2023-11-21T05:18:32;99325.31;;;-4.32;48.97
74561;BME280;62979;55.720;37.606;2023-11-21T05:21:00;99325.88;;;-4.42;49.35
74561;BME280;62979;55.720;37.606;2023-11-21T05:23:27;99331.97;;;-4.39;49.58
74561;BME280;62979;55.720;37.606;2023-11-21T05:25:54;99324.53;;;-4.31;49.35
74561;BME280;62979;55.720;37.606;2023-11-21T05:28:22;99323.75;;;-4.28;49.20
74561;BME280;62979;55.720;37.606;2023-11-21T05:30:49;99327.78;;;-4.35;49.17
74561;BME280;62979;55.720;37.606;2023-11-21T05:33:18;99325.47;;;-4.27;49.28
74561;BME280;62979;55.720;37.606;2023-11-21T05:35:45;99321.41;;;-4.21;49.40
74561;BME280;62979;55.720;37.606;2023-11-21T05:38:13;99312.00;;;-4.22;49.28
74561;BME280;62979;55.720;37.606;2023-11-21T05:40:41;99318.06;;;-4.18;49.26
74561;BME280;62979;55.720;37.606;2023-11-21T05:43:09;99319.06;;;-4.13;49.14
74561;BME280;62979;55.720;37.606;2023-11-21T05:45:37;99325.16;;;-4.08;49.10
74561;BME280;62979;55.720;37.606;2023-11-21T05:48:04;99328.69;;;-4.03;49.07
74561;BME280;62979;55.720;37.606;2023-11-21T05:50:33;99333.81;;;-4.03;48.77
74561;BME280;62979;55.720;37.606;2023-11-21T05:53:00;99334.47;;;-4.10;49.04
74561;BME280;62979;55.720;37.606;2023-11-21T05:55:28;99334.50;;;-4.09;49.18
74561;BME280;62979;55.720;37.606;2023-11-21T05:57:55;99336.09;;;-4.12;49.52
74561;BME280;62979;55.720;37.606;2023-11-21T06:00:21;99332.59;;;-4.16;49.67
74561;BME280;62979;55.720;37.606;2023-11-21T06:02:51;99342.91;;;-4.13;49.89
74561;BME280;62979;55.720;37.606;2023-11-21T06:05:20;99337.00;;;-4.10;50.30
74561;BME280;62979;55.720;37.606;2023-11-21T06:07:50;99344.72;;;-4.09;50.58
74561;BME280;62979;55.720;37.606;2023-11-21T06:10:20;99348.13;;;-4.08;50.79
74561;BME280;62979;55.720;37.606;2023-11-21T06:12:49;99356.66;;;-4.07;50.71
74561;BME280;62979;55.720;37.606;2023-11-21T06:15:16;99367.75;;;-4.07;50.90
74561;BME280;62979;55.720;37.606;2023-11-21T06:17:44;99356.00;;;-4.02;50.52
74561;BME280;62979;55.720;37.606;2023-11-21T06:20:15;99358.69;;;-3.97;50.88
74561;BME280;62979;55.720;37.606;2023-11-21T06:22:44;99349.91;;;-4.05;50.93
74561;BME280;62979;55.720;37.606;2023-11-21T06:25:14;99351.22;;;-3.90;50.55
74561;BME280;62979;55.720;37.606;2023-11-21T06:27:42;99354.50;;;-3.94;50.68
74561;BME280;62979;55.720;37.606;2023-11-21T06:30:11;99347.69;;;-3.95;50.07
74561;BME280;62979;55.720;37.606;2023-11-21T06:32:41;99364.16;;;-3.83;50.19
74561;BME280;62979;55.720;37.606;2023-11-21T06:35:11;99357.47;;;-3.78;50.39
74561;BME280;62979;55.720;37.606;2023-11-21T06:37:38;99358.22;;;-3.82;49.92
74561;BME280;62979;55.720;37.606;2023-11-21T06:40:07;99361.59;;;-3.83;50.08
74561;BME280;62979;55.720;37.606;2023-11-21T06:42:37;99369.31;;;-3.82;50.08
74561;BME280;62979;55.720;37.606;2023-11-21T06:45:05;99367.34;;;-3.92;50.04
74561;BME280;62979;55.720;37.606;2023-11-21T06:47:36;99366.22;;;-4.02;51.25
74561;BME280;62979;55.720;37.606;2023-11-21T06:50:05;99361.91;;;-4.03;51.32
74561;BME280;62979;55.720;37.606;2023-11-21T06:52:33;99370.66;;;-3.95;51.06
74561;BME280;62979;55.720;37.606;2023-11-21T06:55:01;99373.22;;;-3.95;50.00
74561;BME280;62979;55.720;37.606;2023-11-21T06:57:28;99371.47;;;-3.96;49.72
74561;BME280;62979;55.720;37.606;2023-11-21T06:59:57;99363.22;;;-3.85;49.90
74561;BME280;62979;55.720;37.606;2023-11-21T07:02:24;99369.31;;;-3.82;49.84
74561;BME280;62979;55.720;37.606;2023-11-21T07:04:51;99358.22;;;-3.82;49.40
74561;BME280;62979;55.720;37.606;2023-11-21T07:07:18;99362.44;;;-3.84;49.16
74561;BME280;62979;55.720;37.606;2023-11-21T07:09:46;99354.75;;;-3.84;48.99
74561;BME280;62979;55.720;37.606;2023-11-21T07:12:14;99352.00;;;-3.92;48.73
74561;BME280;62979;55.720;37.606;2023-11-21T07:14:41;99371.88;;;-3.80;48.84
74561;BME280;62979;55.720;37.606;2023-11-21T07:17:11;99377.06;;;-3.79;48.61
74561;BME280;62979;55.720;37.606;2023-11-21T07:19:39;99370.16;;;-3.81;48.38
74561;BME280;62979;55.720;37.606;2023-11-21T07:22:06;99383.00;;;-3.78;48.03
74561;BME280;62979;55.720;37.606;2023-11-21T07:24:34;99371.81;;;-3.83;48.42
74561;BME280;62979;55.720;37.606;2023-11-21T07:27:02;99376.41;;;-3.72;48.66
74561;BME280;62979;55.720;37.606;2023-11-21T07:29:30;99342.72;;;-3.89;48.31
74561;BME280;62979;55.720;37.606;2023-11-21T07:31:58;99379.34;;;-3.58;48.13
74561;BME280;62979;55.720;37.606;2023-11-21T07:34:27;99380.19;;;-3.57;48.08
74561;BME280;62979;55.720;37.606;2023-11-21T07:36:54;99376.69;;;-3.61;48.21
74561;BME280;62979;55.720;37.606;2023-11-21T07:39:21;99378.34;;;-3.63;48.28
74561;BME280;62979;55.720;37.606;2023-11-21T07:41:48;99386.56;;;-3.73;48.11
74561;BME280;62979;55.720;37.606;2023-11-21T07:44:16;99370.34;;;-3.75;48.17
74561;BME280;62979;55.720;37.606;2023-11-21T07:46:45;99379.91;;;-3.68;48.44
74561;BME280;62979;55.720;37.606;2023-11-21T07:49:12;99372.41;;;-3.62;48.37
74561;BME280;62979;55.720;37.606;2023-11-21T07:51:43;99381.97;;;-3.55;48.29
74561;BME280;62979;55.720;37.606;2023-11-21T07:54:10;99384.78;;;-3.46;48.06
74561;BME280;62979;55.720;37.606;2023-11-21T07:56:37;99376.31;;;-3.43;47.84
74561;BME280;62979;55.720;37.606;2023-11-21T07:59:05;99370.25;;;-3.47;47.54
74561;BME280;62979;55.720;37.606;2023-11-21T08:01:32;99366.03;;;-3.45;48.07
74561;BME280;62979;55.720;37.606;2023-11-21T08:03:59;99373.91;;;-3.37;47.98
74561;BME280;62979;55.720;37.606;2023-11-21T08:06:29;99366.22;;;-3.38;46.96
74561;BME280;62979;55.720;37.606;2023-11-21T08:08:57;99368.34;;;-3.54;47.50
74561;BME280;62979;55.720;37.606;2023-11-21T08:11:24;99363.91;;;-3.61;47.52
74561;BME280;62979;55.720;37.606;2023-11-21T08:13:54;99371.78;;;-3.53;47.88
74561;BME280;62979;55.720;37.606;2023-11-21T08:16:22;99365.66;;;-3.60;48.47
74561;BME280;62979;55.720;37.606;2023-11-21T08:18:49;99370.81;;;-3.58;48.52
74561;BME280;62979;55.720;37.606;2023-11-21T08:21:16;99372.59;;;-3.56;48.33
74561;BME280;62979;55.720;37.606;2023-11-21T08:23:44;99365.66;;;-3.60;48.23
74561;BME280;62979;55.720;37.606;2023-11-21T08:26:15;99362.34;;;-3.56;47.10
74561;BME280;62979;55.720;37.606;2023-11-21T08:28:43;99373.59;;;-3.81;47.62
74561;BME280;62979;55.720;37.606;2023-11-21T08:31:10;99360.22;;;-3.72;48.07
74561;BME280;62979;55.720;37.606;2023-11-21T08:33:38;99340.50;;;-3.76;48.80
74561;BME280;62979;55.720;37.606;2023-11-21T08:36:07;99360.72;;;-3.52;48.90
74561;BME280;62979;55.720;37.606;2023-11-21T08:38:35;99363.56;;;-3.41;48.04
74561;BME280;62979;55.720;37.606;2023-11-21T08:41:05;99361.09;;;-3.38;48.46
74561;BME280;62979;55.720;37.606;2023-11-21T08:43:35;99351.69;;;-3.39;48.24
74561;BME280;62979;55.720;37.606;2023-11-21T08:46:05;99361.97;;;-3.38;47.95
74561;BME280;62979;55.720;37.606;2023-11-21T08:48:35;99364.31;;;-3.46;47.04
74561;BME280;62979;55.720;37.606;2023-11-21T08:51:02;99356.59;;;-3.49;47.71
74561;BME280;62979;55.720;37.606;2023-11-21T08:53:30;99349.41;;;-3.62;47.99
74561;BME280;62979;55.720;37.606;2023-11-21T08:55:58;99346.38;;;-3.49;48.11
74561;BME280;62979;55.720;37.606;2023-11-21T08:58:25;99359.28;;;-3.42;47.40
74561;BME280;62979;55.720;37.606;2023-11-21T09:00:53;99368.97;;;-3.31;47.06
74561;BME280;62979;55.720;37.606;2023-11-21T09:03:21;99357.00;;;-3.32;46.64
74561;BME280;62979;55.720;37.606;2023-11-21T09:05:48;99382.69;;;-3.27;46.49
74561;BME280;62979;55.720;37.606;2023-11-21T09:08:15;99376.66;;;-3.29;46.90
74561;BME280;62979;55.720;37.606;2023-11-21T09:10:42;99384.50;;;-3.23;46.92
74561;BME280;62979;55.720;37.606;2023-11-21T09:13:12;99375.72;;;-3.33;47.08
74561;BME280;62979;55.720;37.606;2023-11-21T09:15:42;99376.59;;;-3.32;47.33
74561;BME280;62979;55.720;37.606;2023-11-21T09:18:13;99385.34;;;-3.24;47.57
74561;BME280;62979;55.720;37.606;2023-11-21T09:20:40;99387.22;;;-3.17;47.28
74561;BME280;62979;55.720;37.606;2023-11-21T09:23:08;99389.81;;;-3.15;47.06
74561;BME280;62979;55.720;37.606;2023-11-21T09:25:35;99381.31;;;-3.14;47.11
74561;BME280;62979;55.720;37.606;2023-11-21T09:28:03;99360.66;;;-3.22;46.91
74561;BME280;62979;55.720;37.606;2023-11-21T09:30:33;99378.94;;;-3.07;47.27
74561;BME280;62979;55.720;37.606;2023-11-21T09:33:00;99382.50;;;-3.00;47.20
74561;BME280;62979;55.720;37.606;2023-11-21T09:35:29;99385.00;;;-3.03;47.16
74561;BME280;62979;55.720;37.606;2023-11-21T09:37:57;99383.50;;;-2.95;47.49
74561;BME280;62979;55.720;37.606;2023-11-21T09:40:24;99386.19;;;-2.89;47.21
74561;BME280;62979;55.720;37.606;2023-11-21T09:42:54;99381.81;;;-2.93;47.75
74561;BME280;62979;55.720;37.606;2023-11-21T09:45:26;99389.41;;;-2.97;47.03
74561;BME280;62979;55.720;37.606;2023-11-21T09:47:54;99388.63;;;-2.95;47.27
74561;BME280;62979;55.720;37.606;2023-11-21T09:50:23;99393.56;;;-3.01;47.72
74561;BME280;62979;55.720;37.606;2023-11-21T09:52:58;99383.84;;;-3.16;47.80
74561;BME280;62979;55.720;37.606;2023-11-21T09:55:42;99393.38;;;-3.09;47.77
74561;BME280;62979;55.720;37.606;2023-11-21T09:58:11;99402.94;;;-3.02;47.41
74561;BME280;62979;55.720;37.606;2023-11-21T10:00:41;99392.47;;;-3.11;47.23
74561;BME280;62979;55.720;37.606;2023-11-21T10:03:09;99401.06;;;-3.09;47.30
74561;BME280;62979;55.720;37.606;2023-11-21T10:05:37;99399.25;;;-3.13;47.44
74561;BME280;62979;55.720;37.606;2023-11-21T10:08:08;99398.56;;;-3.06;47.32
74561;BME280;62979;55.720;37.606;2023-11-21T10:10:37;99412.22;;;-3.07;47.41
74561;BME280;62979;55.720;37.606;2023-11-21T10:13:11;99402.56;;;-3.17;47.33
74561;BME280;62979;55.720;37.606;2023-11-21T10:15:42;99409.66;;;-3.07;47.50
74561;BME280;62979;55.720;37.606;2023-11-21T10:18:14;99405.50;;;-3.02;47.46
74561;BME280;62979;55.720;37.606;2023-11-21T10:20:42;99403.88;;;-2.98;47.44
74561;BME280;62979;55.720;37.606;2023-11-21T10:23:13;99412.50;;;-2.94;47.56
74561;BME280;62979;55.720;37.606;2023-11-21T10:25:41;99405.66;;;-2.95;47.46
74561;BME280;62979;55.720;37.606;2023-11-21T10:28:09;99410.63;;;-3.02;47.04
74561;BME280;62979;55.720;37.606;2023-11-21T10:30:38;99407.28;;;-2.99;47.47
74561;BME280;62979;55.720;37.606;2023-11-21T10:33:06;99406.13;;;-3.10;47.23
74561;BME280;62979;55.720;37.606;2023-11-21T10:35:44;99398.31;;;-3.16;47.73
74561;BME280;62979;55.720;37.606;2023-11-21T10:38:17;99383.72;;;-3.20;47.77
74561;BME280;62979;55.720;37.606;2023-11-21T10:40:46;99401.13;;;-3.07;47.53
74561;BME280;62979;55.720;37.606;2023-11-21T10:43:14;99401.13;;;-3.06;47.28
74561;BME280;62979;55.720;37.606;2023-11-21T10:45:43;99392.66;;;-3.05;47.11
74561;BME280;62979;55.720;37.606;2023-11-21T10:48:12;99402.00;;;-3.05;47.23
74561;BME280;62979;55.720;37.606;2023-11-21T10:50:42;99394.97;;;-3.14;47.07
74561;BME280;62979;55.720;37.606;2023-11-21T10:53:10;99402.72;;;-3.11;47.34
74561;BME280;62979;55.720;37.606;2023-11-21T10:55:40;99396.44;;;-3.22;47.38
74561;BME280;62979;55.720;37.606;2023-11-21T10:58:07;99400.81;;;-3.18;47.63
74561;BME280;62979;55.720;37.606;2023-11-21T11:00:37;99402.66;;;-3.14;47.67
74561;BME280;62979;55.720;37.606;2023-11-21T11:03:06;99402.88;;;-3.05;47.83
74561;BME280;62979;55.720;37.606;2023-11-21T11:05:40;99413.19;;;-3.02;47.71
74561;BME280;62979;55.720;37.606;2023-11-21T11:08:18;99409.03;;;-2.96;47.53
74561;BME280;62979;55.720;37.606;2023-11-21T11:10:53;99384.03;;;-3.08;47.59
74561;BME280;62979;55.720;37.606;2023-11-21T11:13:21;99404.84;;;-2.94;47.03
74561;BME280;62979;55.720;37.606;2023-11-21T11:15:49;99398.06;;;-2.92;47.13
74561;BME280;62979;55.720;37.606;2023-11-21T11:18:18;99406.63;;;-2.90;47.32
74561;BME280;62979;55.720;37.606;2023-11-21T11:20:48;99404.97;;;-2.88;47.51
74561;BME280;62979;55.720;37.606;2023-11-21T11:23:32;99401.38;;;-2.96;47.40
74561;BME280;62979;55.720;37.606;2023-11-21T11:26:32;99404.59;;;-3.04;47.22
74561;BME280;62979;55.720;37.606;2023-11-21T11:29:14;99413.69;;;-3.47;48.72
74561;BME280;62979;55.720;37.606;2023-11-21T11:32:03;99412.38;;;-3.32;48.08
74561;BME280;62979;55.720;37.606;2023-11-21T11:34:43;99416.56;;;-3.36;47.92
74561;BME280;62979;55.720;37.606;2023-11-21T11:37:16;99422.94;;;-3.52;48.10
74561;BME280;62979;55.720;37.606;2023-11-21T11:39:44;99428.38;;;-3.39;49.05
74561;BME280;62979;55.720;37.606;2023-11-21T11:42:14;99423.53;;;-3.92;52.49
74561;BME280;62979;55.720;37.606;2023-11-21T11:44:56;99432.34;;;-3.81;51.78
74561;BME280;62979;55.720;37.606;2023-11-21T11:47:25;99423.25;;;-4.01;52.29
74561;BME280;62979;55.720;37.606;2023-11-21T11:50:00;99432.19;;;-3.85;53.26
74561;BME280;62979;55.720;37.606;2023-11-21T11:52:38;99425.38;;;-3.87;51.38
74561;BME280;62979;55.720;37.606;2023-11-21T11:55:08;99425.66;;;-3.76;52.64
74561;BME280;62979;55.720;37.606;2023-11-21T11:57:41;99430.25;;;-3.64;51.99
74561;BME280;62979;55.720;37.606;2023-11-21T12:00:14;99430.25;;;-3.66;51.24
74561;BME280;62979;55.720;37.606;2023-11-21T12:02:44;99435.44;;;-3.61;51.14
74561;BME280;62979;55.720;37.606;2023-11-21T12:05:14;99427.16;;;-3.84;51.00
74561;BME280;62979;55.720;37.606;2023-11-21T12:07:45;99436.66;;;-3.80;50.62
74561;BME280;62979;55.720;37.606;2023-11-21T12:10:14;99449.56;;;-3.74;51.17
74561;BME280;62979;55.720;37.606;2023-11-21T12:12:46;99445.31;;;-3.73;50.56
74561;BME280;62979;55.720;37.606;2023-11-21T12:15:14;99441.31;;;-3.65;50.48
74561;BME280;62979;55.720;37.606;2023-11-21T12:17:43;99451.06;;;-3.52;50.40
74561;BME280;62979;55.720;37.606;2023-11-21T12:20:12;99451.19;;;-3.47;50.21
74561;BME280;62979;55.720;37.606;2023-11-21T12:22:47;99432.81;;;-3.64;50.24
74561;BME280;62979;55.720;37.606;2023-11-21T12:25:17;99447.50;;;-3.57;50.49
74561;BME280;62979;55.720;37.606;2023-11-21T12:27:46;99452.69;;;-3.54;50.41
74561;BME280;62979;55.720;37.606;2023-11-21T12:30:16;99450.03;;;-3.58;50.34
74561;BME280;62979;55.720;37.606;2023-11-21T12:32:49;99450.97;;;-3.55;50.41
74561;BME280;62979;55.720;37.606;2023-11-21T12:35:18;99443.94;;;-3.62;50.17
74561;BME280;62979;55.720;37.606;2023-11-21T12:37:45;99457.09;;;-3.78;50.80
74561;BME280;62979;55.720;37.606;2023-11-21T12:40:14;99451.75;;;-3.88;50.06
74561;BME280;62979;55.720;37.606;2023-11-21T12:42:44;99460.06;;;-3.95;50.05
74561;BME280;62979;55.720;37.606;2023-11-21T12:45:21;99456.66;;;-3.94;50.70
74561;BME280;62979;55.720;37.606;2023-11-21T12:47:54;99459.44;;;-3.86;50.91
74561;BME280;62979;55.720;37.606;2023-11-21T12:50:26;99466.31;;;-3.85;51.11
74561;BME280;62979;55.720;37.606;2023-11-21T12:52:59;99459.00;;;-3.73;51.70
74561;BME280;62979;55.720;37.606;2023-11-21T12:55:30;99453.09;;;-3.70;50.84
74561;BME280;62979;55.720;37.606;2023-11-21T12:58:01;99452.63;;;-3.87;50.54